sensor_id;sensor_type;location;lat;lon;timestamp;P1;durP1;ratioP1;P2;durP2;ratioP2
27428;SDS011;14881;48.092;11.574;2023-03-15T00:00:04;6.93;;;3.13;;
27428;SDS011;14881;48.092;11.574;2023-03-15T00:02:35;2.92;;;1.90;;
27428;SDS011;14881;48.092;11.574;2023-03-15T00:05:04;2.13;;;1.65;;
27428;SDS011;14881;48.092;11.574;2023-03-15T00:07:33;7.10;;;3.85;;
27428;SDS011;14881;48.092;11.574;2023-03-15T00:10:00;10.32;;;4.50;;
27428;SDS011;14881;48.092;11.574;2023-03-15T00:12:31;4.90;;;2.53;;
27428;SDS011;14881;48.092;11.574;2023-03-15T00:14:59;6.35;;;2.90;;
27428;SDS011;14881;48.092;11.574;2023-03-15T00:17:27;9.73;;;4.05;;
27428;SDS011;14881;48.092;11.574;2023-03-15T00:19:57;14.70;;;5.88;;
27428;SDS011;14881;48.092;11.574;2023-03-15T00:22:26;4.50;;;2.95;;
27428;SDS011;14881;48.092;11.574;2023-03-15T00:24:54;5.03;;;2.10;;
27428;SDS011;14881;48.092;11.574;2023-03-15T00:27:22;3.53;;;1.95;;
27428;SDS011;14881;48.092;11.574;2023-03-15T00:29:49;3.15;;;1.73;;
27428;SDS011;14881;48.092;11.574;2023-03-15T00:32:17;1.90;;;1.70;;
27428;SDS011;14881;48.092;11.574;2023-03-15T00:34:45;5.07;;;2.30;;
27428;SDS011;14881;48.092;11.574;2023-03-15T00:37:14;6.30;;;2.25;;
27428;SDS011;14881;48.092;11.574;2023-03-15T00:39:46;4.95;;;2.42;;
27428;SDS011;14881;48.092;11.574;2023-03-15T00:42:14;3.47;;;2.10;;
27428;SDS011;14881;48.092;11.574;2023-03-15T00:44:41;6.10;;;2.65;;
27428;SDS011;14881;48.092;11.574;2023-03-15T00:47:13;4.10;;;2.10;;
27428;SDS011;14881;48.092;11.574;2023-03-15T00:49:41;4.00;;;2.72;;
27428;SDS011;14881;48.092;11.574;2023-03-15T00:52:09;4.70;;;2.50;;
27428;SDS011;14881;48.092;11.574;2023-03-15T00:54:37;2.97;;;2.33;;
27428;SDS011;14881;48.092;11.574;2023-03-15T00:57:10;5.13;;;2.30;;
27428;SDS011;14881;48.092;11.574;2023-03-15T00:59:38;7.75;;;2.95;;
27428;SDS011;14881;48.092;11.574;2023-03-15T01:02:05;6.65;;;2.60;;
27428;SDS011;14881;48.092;11.574;2023-03-15T01:04:36;3.75;;;2.70;;
27428;SDS011;14881;48.092;11.574;2023-03-15T01:07:04;3.47;;;2.30;;
27428;SDS011;14881;48.092;11.574;2023-03-15T01:09:33;3.72;;;2.10;;
27428;SDS011;14881;48.092;11.574;2023-03-15T01:12:01;3.15;;;2.30;;
27428;SDS011;14881;48.092;11.574;2023-03-15T01:14:31;6.45;;;2.45;;
27428;SDS011;14881;48.092;11.574;2023-03-15T01:17:00;4.15;;;2.33;;
27428;SDS011;14881;48.092;11.574;2023-03-15T01:19:28;4.05;;;1.90;;
27428;SDS011;14881;48.092;11.574;2023-03-15T01:21:56;2.28;;;1.80;;
27428;SDS011;14881;48.092;11.574;2023-03-15T01:24:23;3.20;;;1.80;;
27428;SDS011;14881;48.092;11.574;2023-03-15T01:26:51;2.42;;;1.63;;
27428;SDS011;14881;48.092;11.574;2023-03-15T01:29:19;2.28;;;1.80;;
27428;SDS011;14881;48.092;11.574;2023-03-15T01:31:48;3.35;;;2.00;;
27428;SDS011;14881;48.092;11.574;2023-03-15T01:34:16;3.22;;;1.90;;
27428;SDS011;14881;48.092;11.574;2023-03-15T01:36:44;2.70;;;1.58;;
27428;SDS011;14881;48.092;11.574;2023-03-15T01:39:12;2.85;;;1.85;;
27428;SDS011;14881;48.092;11.574;2023-03-15T01:41:41;3.45;;;1.65;;
27428;SDS011;14881;48.092;11.574;2023-03-15T01:44:11;3.20;;;1.98;;
27428;SDS011;14881;48.092;11.574;2023-03-15T01:46:40;2.55;;;1.95;;
27428;SDS011;14881;48.092;11.574;2023-03-15T01:49:10;1.83;;;1.55;;
27428;SDS011;14881;48.092;11.574;2023-03-15T01:51:40;1.60;;;1.50;;
27428;SDS011;14881;48.092;11.574;2023-03-15T01:54:14;2.33;;;1.90;;
27428;SDS011;14881;48.092;11.574;2023-03-15T01:56:47;3.17;;;2.15;;
27428;SDS011;14881;48.092;11.574;2023-03-15T01:59:18;2.10;;;1.90;;
27428;SDS011;14881;48.092;11.574;2023-03-15T02:01:50;3.45;;;2.00;;
27428;SDS011;14881;48.092;11.574;2023-03-15T02:04:21;2.28;;;2.08;;
27428;SDS011;14881;48.092;11.574;2023-03-15T02:06:54;2.20;;;1.83;;
27428;SDS011;14881;48.092;11.574;2023-03-15T02:09:26;2.40;;;2.20;;
27428;SDS011;14881;48.092;11.574;2023-03-15T02:11:58;3.78;;;2.10;;
27428;SDS011;14881;48.092;11.574;2023-03-15T02:14:26;2.67;;;2.38;;
27428;SDS011;14881;48.092;11.574;2023-03-15T02:16:55;3.40;;;2.45;;
27428;SDS011;14881;48.092;11.574;2023-03-15T02:19:31;2.40;;;2.20;;
27428;SDS011;14881;48.092;11.574;2023-03-15T02:22:09;4.03;;;3.08;;
27428;SDS011;14881;48.092;11.574;2023-03-15T02:24:50;2.75;;;2.47;;
27428;SDS011;14881;48.092;11.574;2023-03-15T02:27:28;2.97;;;2.65;;
27428;SDS011;14881;48.092;11.574;2023-03-15T02:30:02;4.68;;;2.80;;
27428;SDS011;14881;48.092;11.574;2023-03-15T02:32:32;3.90;;;3.15;;
27428;SDS011;14881;48.092;11.574;2023-03-15T02:35:00;6.03;;;3.08;;
27428;SDS011;14881;48.092;11.574;2023-03-15T02:37:28;4.63;;;3.20;;
27428;SDS011;14881;48.092;11.574;2023-03-15T02:39:55;4.25;;;3.40;;
27428;SDS011;14881;48.092;11.574;2023-03-15T02:42:23;6.05;;;3.88;;
27428;SDS011;14881;48.092;11.574;2023-03-15T02:44:54;4.28;;;3.65;;
27428;SDS011;14881;48.092;11.574;2023-03-15T02:47:24;6.53;;;3.78;;
27428;SDS011;14881;48.092;11.574;2023-03-15T02:49:54;5.70;;;4.10;;
27428;SDS011;14881;48.092;11.574;2023-03-15T02:52:22;5.32;;;3.72;;
27428;SDS011;14881;48.092;11.574;2023-03-15T02:54:51;4.70;;;4.00;;
27428;SDS011;14881;48.092;11.574;2023-03-15T02:57:19;6.20;;;4.53;;
27428;SDS011;14881;48.092;11.574;2023-03-15T02:59:49;6.47;;;4.68;;
27428;SDS011;14881;48.092;11.574;2023-03-15T03:02:18;4.22;;;3.72;;
27428;SDS011;14881;48.092;11.574;2023-03-15T03:04:49;5.38;;;3.92;;
27428;SDS011;14881;48.092;11.574;2023-03-15T03:07:20;5.80;;;3.40;;
27428;SDS011;14881;48.092;11.574;2023-03-15T03:09:50;7.53;;;4.28;;
27428;SDS011;14881;48.092;11.574;2023-03-15T03:12:20;8.13;;;4.38;;
27428;SDS011;14881;48.092;11.574;2023-03-15T03:14:48;6.05;;;4.10;;
27428;SDS011;14881;48.092;11.574;2023-03-15T03:17:16;6.35;;;4.35;;
27428;SDS011;14881;48.092;11.574;2023-03-15T03:19:48;5.10;;;4.10;;
27428;SDS011;14881;48.092;11.574;2023-03-15T03:22:16;4.60;;;3.50;;
27428;SDS011;14881;48.092;11.574;2023-03-15T03:24:45;4.97;;;3.55;;
27428;SDS011;14881;48.092;11.574;2023-03-15T03:27:13;3.90;;;3.40;;
27428;SDS011;14881;48.092;11.574;2023-03-15T03:29:42;5.50;;;4.20;;
27428;SDS011;14881;48.092;11.574;2023-03-15T03:32:10;4.28;;;3.47;;
27428;SDS011;14881;48.092;11.574;2023-03-15T03:34:38;6.00;;;3.90;;
27428;SDS011;14881;48.092;11.574;2023-03-15T03:37:07;5.22;;;3.88;;
27428;SDS011;14881;48.092;11.574;2023-03-15T03:39:35;5.35;;;4.07;;
27428;SDS011;14881;48.092;11.574;2023-03-15T03:42:04;6.45;;;4.18;;
27428;SDS011;14881;48.092;11.574;2023-03-15T03:44:31;7.40;;;4.88;;
27428;SDS011;14881;48.092;11.574;2023-03-15T03:46:59;7.82;;;5.30;;
27428;SDS011;14881;48.092;11.574;2023-03-15T03:49:27;12.93;;;5.47;;
27428;SDS011;14881;48.092;11.574;2023-03-15T03:51:55;8.35;;;5.40;;
27428;SDS011;14881;48.092;11.574;2023-03-15T03:54:24;7.68;;;5.07;;
27428;SDS011;14881;48.092;11.574;2023-03-15T03:56:51;9.23;;;5.43;;
27428;SDS011;14881;48.092;11.574;2023-03-15T03:59:19;7.63;;;4.75;;
27428;SDS011;14881;48.092;11.574;2023-03-15T04:01:47;9.40;;;5.25;;
27428;SDS011;14881;48.092;11.574;2023-03-15T04:04:16;8.18;;;5.60;;
27428;SDS011;14881;48.092;11.574;2023-03-15T04:06:44;10.60;;;5.63;;
27428;SDS011;14881;48.092;11.574;2023-03-15T04:09:12;10.02;;;6.05;;
27428;SDS011;14881;48.092;11.574;2023-03-15T04:11:44;12.18;;;6.55;;
27428;SDS011;14881;48.092;11.574;2023-03-15T04:14:12;10.93;;;6.40;;
27428;SDS011;14881;48.092;11.574;2023-03-15T04:16:41;8.60;;;5.65;;
27428;SDS011;14881;48.092;11.574;2023-03-15T04:19:08;7.40;;;5.15;;
27428;SDS011;14881;48.092;11.574;2023-03-15T04:21:38;9.57;;;5.40;;
27428;SDS011;14881;48.092;11.574;2023-03-15T04:24:13;8.35;;;5.60;;
27428;SDS011;14881;48.092;11.574;2023-03-15T04:26:40;8.63;;;5.85;;
27428;SDS011;14881;48.092;11.574;2023-03-15T04:29:10;10.65;;;5.72;;
27428;SDS011;14881;48.092;11.574;2023-03-15T04:31:39;11.07;;;5.68;;
27428;SDS011;14881;48.092;11.574;2023-03-15T04:34:10;11.20;;;6.05;;
27428;SDS011;14881;48.092;11.574;2023-03-15T04:36:38;9.32;;;5.68;;
27428;SDS011;14881;48.092;11.574;2023-03-15T04:39:07;9.57;;;5.75;;
27428;SDS011;14881;48.092;11.574;2023-03-15T04:41:35;9.23;;;5.28;;
27428;SDS011;14881;48.092;11.574;2023-03-15T04:44:04;7.50;;;5.30;;
27428;SDS011;14881;48.092;11.574;2023-03-15T04:46:34;10.10;;;5.80;;
27428;SDS011;14881;48.092;11.574;2023-03-15T04:49:01;11.82;;;5.88;;
27428;SDS011;14881;48.092;11.574;2023-03-15T04:51:30;9.80;;;5.63;;
27428;SDS011;14881;48.092;11.574;2023-03-15T04:53:59;10.60;;;6.05;;
27428;SDS011;14881;48.092;11.574;2023-03-15T04:56:28;8.23;;;5.57;;
27428;SDS011;14881;48.092;11.574;2023-03-15T04:58:56;8.32;;;5.15;;
27428;SDS011;14881;48.092;11.574;2023-03-15T05:01:26;13.73;;;5.63;;
27428;SDS011;14881;48.092;11.574;2023-03-15T05:03:57;9.10;;;5.50;;
27428;SDS011;14881;48.092;11.574;2023-03-15T05:06:26;8.82;;;5.57;;
27428;SDS011;14881;48.092;11.574;2023-03-15T05:08:54;10.07;;;5.63;;
27428;SDS011;14881;48.092;11.574;2023-03-15T05:11:22;8.75;;;4.95;;
27428;SDS011;14881;48.092;11.574;2023-03-15T05:13:50;10.35;;;4.57;;
27428;SDS011;14881;48.092;11.574;2023-03-15T05:16:19;10.57;;;4.45;;
27428;SDS011;14881;48.092;11.574;2023-03-15T05:18:47;8.93;;;4.50;;
27428;SDS011;14881;48.092;11.574;2023-03-15T05:21:20;8.15;;;4.60;;
27428;SDS011;14881;48.092;11.574;2023-03-15T05:23:48;9.00;;;4.25;;
27428;SDS011;14881;48.092;11.574;2023-03-15T05:26:16;10.55;;;4.68;;
27428;SDS011;14881;48.092;11.574;2023-03-15T05:28:44;12.30;;;4.45;;
27428;SDS011;14881;48.092;11.574;2023-03-15T05:31:12;6.90;;;4.32;;
27428;SDS011;14881;48.092;11.574;2023-03-15T05:33:42;12.32;;;5.20;;
27428;SDS011;14881;48.092;11.574;2023-03-15T05:36:12;9.57;;;5.25;;
27428;SDS011;14881;48.092;11.574;2023-03-15T05:38:44;10.07;;;4.53;;
27428;SDS011;14881;48.092;11.574;2023-03-15T05:41:12;7.78;;;4.45;;
27428;SDS011;14881;48.092;11.574;2023-03-15T05:43:43;8.35;;;4.60;;
27428;SDS011;14881;48.092;11.574;2023-03-15T05:46:11;12.82;;;5.07;;
27428;SDS011;14881;48.092;11.574;2023-03-15T05:48:39;12.60;;;5.10;;
27428;SDS011;14881;48.092;11.574;2023-03-15T05:51:06;10.38;;;4.38;;
27428;SDS011;14881;48.092;11.574;2023-03-15T05:53:34;9.10;;;4.68;;
27428;SDS011;14881;48.092;11.574;2023-03-15T05:56:03;10.88;;;5.03;;
27428;SDS011;14881;48.092;11.574;2023-03-15T05:58:31;11.23;;;5.85;;
27428;SDS011;14881;48.092;11.574;2023-03-15T06:01:00;11.30;;;5.40;;
27428;SDS011;14881;48.092;11.574;2023-03-15T06:03:29;9.13;;;5.07;;
27428;SDS011;14881;48.092;11.574;2023-03-15T06:05:57;13.90;;;5.78;;
27428;SDS011;14881;48.092;11.574;2023-03-15T06:08:28;9.10;;;5.18;;
27428;SDS011;14881;48.092;11.574;2023-03-15T06:10:56;8.45;;;5.28;;
27428;SDS011;14881;48.092;11.574;2023-03-15T06:13:25;8.48;;;5.07;;
27428;SDS011;14881;48.092;11.574;2023-03-15T06:15:53;9.73;;;5.03;;
27428;SDS011;14881;48.092;11.574;2023-03-15T06:18:20;14.77;;;5.75;;
27428;SDS011;14881;48.092;11.574;2023-03-15T06:20:48;11.45;;;5.45;;
27428;SDS011;14881;48.092;11.574;2023-03-15T06:23:16;11.25;;;5.50;;
27428;SDS011;14881;48.092;11.574;2023-03-15T06:25:49;11.23;;;5.20;;
27428;SDS011;14881;48.092;11.574;2023-03-15T06:28:17;13.80;;;5.85;;
27428;SDS011;14881;48.092;11.574;2023-03-15T06:30:46;11.45;;;5.40;;
27428;SDS011;14881;48.092;11.574;2023-03-15T06:33:14;10.90;;;6.43;;
27428;SDS011;14881;48.092;11.574;2023-03-15T06:35:43;14.52;;;6.05;;
27428;SDS011;14881;48.092;11.574;2023-03-15T06:38:12;14.23;;;6.82;;
27428;SDS011;14881;48.092;11.574;2023-03-15T06:40:40;13.32;;;6.93;;
27428;SDS011;14881;48.092;11.574;2023-03-15T06:43:08;13.63;;;7.00;;
27428;SDS011;14881;48.092;11.574;2023-03-15T06:45:43;13.60;;;6.80;;
27428;SDS011;14881;48.092;11.574;2023-03-15T06:48:12;13.48;;;5.93;;
27428;SDS011;14881;48.092;11.574;2023-03-15T06:50:40;14.63;;;6.57;;
27428;SDS011;14881;48.092;11.574;2023-03-15T06:53:12;12.43;;;6.82;;
27428;SDS011;14881;48.092;11.574;2023-03-15T06:55:42;13.00;;;7.35;;
27428;SDS011;14881;48.092;11.574;2023-03-15T06:58:10;12.88;;;7.22;;
27428;SDS011;14881;48.092;11.574;2023-03-15T07:00:38;15.27;;;8.13;;
27428;SDS011;14881;48.092;11.574;2023-03-15T07:03:06;19.70;;;7.57;;
27428;SDS011;14881;48.092;11.574;2023-03-15T07:05:35;11.77;;;7.45;;
27428;SDS011;14881;48.092;11.574;2023-03-15T07:08:03;16.50;;;8.65;;
27428;SDS011;14881;48.092;11.574;2023-03-15T07:10:31;15.52;;;8.27;;
27428;SDS011;14881;48.092;11.574;2023-03-15T07:13:00;21.05;;;8.57;;
27428;SDS011;14881;48.092;11.574;2023-03-15T07:15:29;16.42;;;8.75;;
27428;SDS011;14881;48.092;11.574;2023-03-15T07:17:57;14.52;;;8.52;;
27428;SDS011;14881;48.092;11.574;2023-03-15T07:20:26;16.40;;;9.40;;
27428;SDS011;14881;48.092;11.574;2023-03-15T07:22:57;16.88;;;8.13;;
27428;SDS011;14881;48.092;11.574;2023-03-15T07:25:25;14.75;;;9.02;;
27428;SDS011;14881;48.092;11.574;2023-03-15T07:27:52;18.40;;;9.48;;
27428;SDS011;14881;48.092;11.574;2023-03-15T07:30:20;17.98;;;9.73;;
27428;SDS011;14881;48.092;11.574;2023-03-15T07:32:48;15.38;;;9.65;;
27428;SDS011;14881;48.092;11.574;2023-03-15T07:35:16;19.52;;;9.23;;
27428;SDS011;14881;48.092;11.574;2023-03-15T07:37:44;15.32;;;9.38;;
27428;SDS011;14881;48.092;11.574;2023-03-15T07:40:13;21.20;;;9.65;;
27428;SDS011;14881;48.092;11.574;2023-03-15T07:42:41;20.10;;;9.32;;
27428;SDS011;14881;48.092;11.574;2023-03-15T07:45:10;22.92;;;10.77;;
27428;SDS011;14881;48.092;11.574;2023-03-15T07:47:38;18.65;;;10.10;;
27428;SDS011;14881;48.092;11.574;2023-03-15T07:50:06;19.00;;;9.32;;
27428;SDS011;14881;48.092;11.574;2023-03-15T07:52:35;16.98;;;10.02;;
27428;SDS011;14881;48.092;11.574;2023-03-15T07:55:03;19.05;;;10.23;;
27428;SDS011;14881;48.092;11.574;2023-03-15T07:57:35;19.48;;;10.65;;
27428;SDS011;14881;48.092;11.574;2023-03-15T08:00:03;16.98;;;9.65;;
27428;SDS011;14881;48.092;11.574;2023-03-15T08:02:32;21.92;;;11.23;;
27428;SDS011;14881;48.092;11.574;2023-03-15T08:04:59;25.40;;;10.30;;
27428;SDS011;14881;48.092;11.574;2023-03-15T08:07:27;21.10;;;10.23;;
27428;SDS011;14881;48.092;11.574;2023-03-15T08:09:55;21.42;;;11.25;;
27428;SDS011;14881;48.092;11.574;2023-03-15T08:12:23;21.63;;;11.00;;
27428;SDS011;14881;48.092;11.574;2023-03-15T08:14:52;14.90;;;9.80;;
27428;SDS011;14881;48.092;11.574;2023-03-15T08:17:20;20.13;;;10.38;;
27428;SDS011;14881;48.092;11.574;2023-03-15T08:19:48;15.23;;;9.32;;
27428;SDS011;14881;48.092;11.574;2023-03-15T08:22:15;18.20;;;9.25;;
27428;SDS011;14881;48.092;11.574;2023-03-15T08:24:43;16.98;;;9.65;;
27428;SDS011;14881;48.092;11.574;2023-03-15T08:27:11;13.38;;;8.75;;
27428;SDS011;14881;48.092;11.574;2023-03-15T08:29:39;17.13;;;8.70;;
27428;SDS011;14881;48.092;11.574;2023-03-15T08:32:08;15.82;;;8.88;;
27428;SDS011;14881;48.092;11.574;2023-03-15T08:34:36;16.92;;;8.82;;
27428;SDS011;14881;48.092;11.574;2023-03-15T08:37:04;17.83;;;8.98;;
27428;SDS011;14881;48.092;11.574;2023-03-15T08:39:31;16.15;;;9.15;;
27428;SDS011;14881;48.092;11.574;2023-03-15T08:42:01;19.75;;;9.75;;
27428;SDS011;14881;48.092;11.574;2023-03-15T08:44:29;15.93;;;8.68;;
27428;SDS011;14881;48.092;11.574;2023-03-15T08:46:57;17.65;;;8.77;;
27428;SDS011;14881;48.092;11.574;2023-03-15T08:49:26;15.27;;;8.18;;
27428;SDS011;14881;48.092;11.574;2023-03-15T08:51:54;16.33;;;6.70;;
27428;SDS011;14881;48.092;11.574;2023-03-15T08:54:26;11.48;;;6.80;;
27428;SDS011;14881;48.092;11.574;2023-03-15T08:56:53;13.52;;;7.28;;
27428;SDS011;14881;48.092;11.574;2023-03-15T08:59:21;11.70;;;6.20;;
27428;SDS011;14881;48.092;11.574;2023-03-15T09:01:58;10.60;;;6.70;;
27428;SDS011;14881;48.092;11.574;2023-03-15T09:04:27;14.15;;;6.80;;
27428;SDS011;14881;48.092;11.574;2023-03-15T09:06:55;18.38;;;7.35;;
27428;SDS011;14881;48.092;11.574;2023-03-15T09:09:23;14.10;;;6.20;;
27428;SDS011;14881;48.092;11.574;2023-03-15T09:11:51;12.27;;;6.55;;
27428;SDS011;14881;48.092;11.574;2023-03-15T09:14:19;13.50;;;6.78;;
27428;SDS011;14881;48.092;11.574;2023-03-15T09:16:46;15.88;;;7.60;;
27428;SDS011;14881;48.092;11.574;2023-03-15T09:19:14;10.30;;;6.55;;
27428;SDS011;14881;48.092;11.574;2023-03-15T09:21:43;11.55;;;6.13;;
27428;SDS011;14881;48.092;11.574;2023-03-15T09:24:12;12.43;;;6.40;;
27428;SDS011;14881;48.092;11.574;2023-03-15T09:26:40;13.57;;;6.95;;
27428;SDS011;14881;48.092;11.574;2023-03-15T09:29:08;18.08;;;7.47;;
27428;SDS011;14881;48.092;11.574;2023-03-15T09:31:36;13.77;;;6.90;;
27428;SDS011;14881;48.092;11.574;2023-03-15T09:34:03;14.68;;;6.20;;
27428;SDS011;14881;48.092;11.574;2023-03-15T09:36:32;11.77;;;6.05;;
27428;SDS011;14881;48.092;11.574;2023-03-15T09:39:01;10.10;;;4.80;;
27428;SDS011;14881;48.092;11.574;2023-03-15T09:41:36;12.98;;;5.93;;
27428;SDS011;14881;48.092;11.574;2023-03-15T09:47:11;16.23;;;6.05;;
27428;SDS011;14881;48.092;11.574;2023-03-15T09:49:48;11.00;;;5.75;;
27428;SDS011;14881;48.092;11.574;2023-03-15T09:52:25;12.98;;;5.28;;
27428;SDS011;14881;48.092;11.574;2023-03-15T09:57:34;11.23;;;4.90;;
27428;SDS011;14881;48.092;11.574;2023-03-15T10:00:05;7.75;;;4.63;;
27428;SDS011;14881;48.092;11.574;2023-03-15T10:02:41;11.23;;;5.00;;
27428;SDS011;14881;48.092;11.574;2023-03-15T10:05:14;7.25;;;4.88;;
27428;SDS011;14881;48.092;11.574;2023-03-15T10:07:46;8.18;;;4.68;;
27428;SDS011;14881;48.092;11.574;2023-03-15T10:10:17;9.00;;;5.18;;
27428;SDS011;14881;48.092;11.574;2023-03-15T10:12:49;7.75;;;4.88;;
27428;SDS011;14881;48.092;11.574;2023-03-15T10:15:27;7.55;;;4.25;;
27428;SDS011;14881;48.092;11.574;2023-03-15T10:18:10;9.35;;;4.95;;
27428;SDS011;14881;48.092;11.574;2023-03-15T10:20:53;6.25;;;4.00;;
27428;SDS011;14881;48.092;11.574;2023-03-15T10:23:29;10.55;;;4.30;;
27428;SDS011;14881;48.092;11.574;2023-03-15T10:26:05;6.55;;;3.97;;
27428;SDS011;14881;48.092;11.574;2023-03-15T10:28:35;9.55;;;4.25;;
27428;SDS011;14881;48.092;11.574;2023-03-15T10:31:09;8.13;;;4.20;;
27428;SDS011;14881;48.092;11.574;2023-03-15T10:33:54;4.68;;;3.50;;
27428;SDS011;14881;48.092;11.574;2023-03-15T10:36:23;6.70;;;3.45;;
27428;SDS011;14881;48.092;11.574;2023-03-15T10:38:51;7.70;;;3.53;;
27428;SDS011;14881;48.092;11.574;2023-03-15T10:41:35;7.85;;;3.75;;
27428;SDS011;14881;48.092;11.574;2023-03-15T10:44:06;10.20;;;3.63;;
27428;SDS011;14881;48.092;11.574;2023-03-15T10:46:38;8.15;;;3.28;;
27428;SDS011;14881;48.092;11.574;2023-03-15T10:49:09;7.53;;;2.80;;
27428;SDS011;14881;48.092;11.574;2023-03-15T10:51:39;9.35;;;2.85;;
27428;SDS011;14881;48.092;11.574;2023-03-15T10:54:12;5.97;;;2.80;;
27428;SDS011;14881;48.092;11.574;2023-03-15T10:56:44;5.78;;;3.10;;
27428;SDS011;14881;48.092;11.574;2023-03-15T10:59:15;10.07;;;3.80;;
27428;SDS011;14881;48.092;11.574;2023-03-15T11:01:45;8.32;;;2.92;;
27428;SDS011;14881;48.092;11.574;2023-03-15T11:04:16;5.70;;;3.28;;
27428;SDS011;14881;48.092;11.574;2023-03-15T11:06:46;6.80;;;3.00;;
27428;SDS011;14881;48.092;11.574;2023-03-15T11:09:16;6.03;;;2.85;;
27428;SDS011;14881;48.092;11.574;2023-03-15T11:11:54;11.90;;;3.20;;
27428;SDS011;14881;48.092;11.574;2023-03-15T11:14:26;5.63;;;3.22;;
27428;SDS011;14881;48.092;11.574;2023-03-15T11:17:00;3.47;;;2.07;;
27428;SDS011;14881;48.092;11.574;2023-03-15T11:19:28;5.05;;;2.72;;
27428;SDS011;14881;48.092;11.574;2023-03-15T11:21:58;5.93;;;2.88;;
27428;SDS011;14881;48.092;11.574;2023-03-15T11:24:28;3.97;;;2.10;;
27428;SDS011;14881;48.092;11.574;2023-03-15T11:26:59;7.82;;;2.38;;
27428;SDS011;14881;48.092;11.574;2023-03-15T11:29:29;4.95;;;2.17;;
27428;SDS011;14881;48.092;11.574;2023-03-15T11:31:58;3.20;;;1.90;;
27428;SDS011;14881;48.092;11.574;2023-03-15T11:34:34;3.63;;;1.83;;
27428;SDS011;14881;48.092;11.574;2023-03-15T11:37:11;9.05;;;2.42;;
27428;SDS011;14881;48.092;11.574;2023-03-15T11:39:43;7.90;;;2.15;;
27428;SDS011;14881;48.092;11.574;2023-03-15T11:42:23;4.85;;;2.15;;
27428;SDS011;14881;48.092;11.574;2023-03-15T11:47:31;7.45;;;1.90;;
27428;SDS011;14881;48.092;11.574;2023-03-15T11:50:06;3.03;;;2.15;;
27428;SDS011;14881;48.092;11.574;2023-03-15T11:52:37;4.43;;;2.05;;
27428;SDS011;14881;48.092;11.574;2023-03-15T11:55:13;2.78;;;1.77;;
27428;SDS011;14881;48.092;11.574;2023-03-15T11:57:44;5.72;;;1.90;;
27428;SDS011;14881;48.092;11.574;2023-03-15T12:00:19;2.95;;;1.55;;
27428;SDS011;14881;48.092;11.574;2023-03-15T12:11:50;2.22;;;1.65;;
27428;SDS011;14881;48.092;11.574;2023-03-15T12:14:28;4.18;;;1.55;;
27428;SDS011;14881;48.092;11.574;2023-03-15T12:20:07;3.05;;;1.45;;
27428;SDS011;14881;48.092;11.574;2023-03-15T12:22:46;5.75;;;1.70;;
27428;SDS011;14881;48.092;11.574;2023-03-15T12:25:18;5.82;;;1.92;;
27428;SDS011;14881;48.092;11.574;2023-03-15T12:28:06;7.60;;;1.83;;
27428;SDS011;14881;48.092;11.574;2023-03-15T12:30:38;4.28;;;1.73;;
27428;SDS011;14881;48.092;11.574;2023-03-15T12:33:11;2.95;;;1.70;;
27428;SDS011;14881;48.092;11.574;2023-03-15T12:35:42;3.47;;;1.85;;
27428;SDS011;14881;48.092;11.574;2023-03-15T12:38:11;3.75;;;2.05;;
27428;SDS011;14881;48.092;11.574;2023-03-15T12:40:50;3.40;;;1.50;;
27428;SDS011;14881;48.092;11.574;2023-03-15T12:43:36;4.45;;;1.90;;
27428;SDS011;14881;48.092;11.574;2023-03-15T12:46:06;2.80;;;1.60;;
27428;SDS011;14881;48.092;11.574;2023-03-15T12:49:13;2.03;;;1.58;;
27428;SDS011;14881;48.092;11.574;2023-03-15T12:51:56;3.03;;;1.65;;
27428;SDS011;14881;48.092;11.574;2023-03-15T12:54:29;2.90;;;1.60;;
27428;SDS011;14881;48.092;11.574;2023-03-15T12:57:01;3.78;;;1.80;;
27428;SDS011;14881;48.092;11.574;2023-03-15T12:59:31;6.30;;;1.55;;
27428;SDS011;14881;48.092;11.574;2023-03-15T13:02:18;5.57;;;1.60;;
27428;SDS011;14881;48.092;11.574;2023-03-15T13:05:15;6.95;;;1.58;;
27428;SDS011;14881;48.092;11.574;2023-03-15T13:07:56;3.28;;;1.40;;
27428;SDS011;14881;48.092;11.574;2023-03-15T13:10:31;2.03;;;1.30;;
27428;SDS011;14881;48.092;11.574;2023-03-15T13:13:06;1.67;;;1.45;;
27428;SDS011;14881;48.092;11.574;2023-03-15T13:15:43;3.42;;;1.48;;
27428;SDS011;14881;48.092;11.574;2023-03-15T13:18:22;6.13;;;1.80;;
27428;SDS011;14881;48.092;11.574;2023-03-15T13:20:54;2.63;;;1.52;;
27428;SDS011;14881;48.092;11.574;2023-03-15T13:23:32;2.83;;;1.10;;
27428;SDS011;14881;48.092;11.574;2023-03-15T13:26:02;2.47;;;1.60;;
27428;SDS011;14881;48.092;11.574;2023-03-15T13:28:45;5.68;;;1.70;;
27428;SDS011;14881;48.092;11.574;2023-03-15T13:31:19;4.43;;;1.50;;
27428;SDS011;14881;48.092;11.574;2023-03-15T13:33:51;5.93;;;1.45;;
27428;SDS011;14881;48.092;11.574;2023-03-15T13:36:23;5.10;;;1.60;;
27428;SDS011;14881;48.092;11.574;2023-03-15T13:38:53;2.63;;;1.38;;
27428;SDS011;14881;48.092;11.574;2023-03-15T13:41:23;1.60;;;1.30;;
27428;SDS011;14881;48.092;11.574;2023-03-15T13:43:53;4.28;;;1.45;;
27428;SDS011;14881;48.092;11.574;2023-03-15T13:46:24;2.78;;;1.60;;
27428;SDS011;14881;48.092;11.574;2023-03-15T13:48:59;2.70;;;1.70;;
27428;SDS011;14881;48.092;11.574;2023-03-15T13:51:27;2.15;;;1.45;;
27428;SDS011;14881;48.092;11.574;2023-03-15T13:53:59;1.77;;;1.33;;
27428;SDS011;14881;48.092;11.574;2023-03-15T13:56:31;3.28;;;1.20;;
27428;SDS011;14881;48.092;11.574;2023-03-15T13:59:14;4.68;;;1.30;;
27428;SDS011;14881;48.092;11.574;2023-03-15T14:01:42;2.08;;;1.30;;
27428;SDS011;14881;48.092;11.574;2023-03-15T14:04:13;1.60;;;1.23;;
27428;SDS011;14881;48.092;11.574;2023-03-15T14:06:43;2.70;;;1.80;;
27428;SDS011;14881;48.092;11.574;2023-03-15T14:09:16;4.00;;;1.25;;
27428;SDS011;14881;48.092;11.574;2023-03-15T14:11:45;2.63;;;1.42;;
27428;SDS011;14881;48.092;11.574;2023-03-15T14:14:27;2.30;;;1.25;;
27428;SDS011;14881;48.092;11.574;2023-03-15T14:16:57;2.88;;;1.67;;
27428;SDS011;14881;48.092;11.574;2023-03-15T14:19:33;2.80;;;1.30;;
27428;SDS011;14881;48.092;11.574;2023-03-15T14:22:02;2.00;;;1.50;;
27428;SDS011;14881;48.092;11.574;2023-03-15T14:24:39;4.97;;;1.92;;
27428;SDS011;14881;48.092;11.574;2023-03-15T14:27:12;4.72;;;2.35;;
27428;SDS011;14881;48.092;11.574;2023-03-15T14:29:44;1.52;;;1.40;;
27428;SDS011;14881;48.092;11.574;2023-03-15T14:32:21;4.38;;;1.50;;
27428;SDS011;14881;48.092;11.574;2023-03-15T14:34:57;3.72;;;1.70;;
27428;SDS011;14881;48.092;11.574;2023-03-15T14:37:28;4.05;;;1.40;;
27428;SDS011;14881;48.092;11.574;2023-03-15T14:40:06;2.00;;;1.50;;
27428;SDS011;14881;48.092;11.574;2023-03-15T14:42:41;2.17;;;1.42;;
27428;SDS011;14881;48.092;11.574;2023-03-15T14:45:09;2.17;;;1.50;;
27428;SDS011;14881;48.092;11.574;2023-03-15T14:47:38;5.38;;;1.60;;
27428;SDS011;14881;48.092;11.574;2023-03-15T14:50:24;2.58;;;1.58;;
27428;SDS011;14881;48.092;11.574;2023-03-15T14:52:54;3.17;;;2.00;;
27428;SDS011;14881;48.092;11.574;2023-03-15T14:55:26;3.40;;;1.63;;
27428;SDS011;14881;48.092;11.574;2023-03-15T14:57:58;3.77;;;1.60;;
27428;SDS011;14881;48.092;11.574;2023-03-15T15:00:26;4.13;;;1.50;;
27428;SDS011;14881;48.092;11.574;2023-03-15T15:02:55;4.43;;;1.70;;
27428;SDS011;14881;48.092;11.574;2023-03-15T15:05:25;7.03;;;2.05;;
27428;SDS011;14881;48.092;11.574;2023-03-15T15:07:56;20.67;;;8.45;;